CYNC

Wemindji Airport

Wemindji, Quebec, Canada
METAR CYNC 241900Z 13009G17KT 110V180 15SM SCT160 OVC180 08/M02 A3043 RMK AC3AS5 SLP307
Observed Flight Rules
Sep-24 @ 19:00 UTC (26 minutes ago) Visual Flight Rules
Wind Visibility Clouds
130° at 9 knots
 Gusting to 17 knots
15 miles
  • Scattered at 16,000' AGL
  • Overcast at 18,000' AGL
Temperatures Readings
Current 8°C / 46°F
Dewpoint -2°C / 28°F
Humidity 50%
Altimeter 30.43" Hg
Pressure 1030.7 hPa
Elevation 14
METAR CYNC 241900Z 13009G17KT 110V180 15SM SCT160 OVC180 08/M02 A3043 RMK AC3AS5 SLP307
Observed Flight Rules
Sep-24 @ 19:00 UTC
(26 minutes ago)
VFR
Wind Visibility
130° at 9 knots
 Gusting to 17 knots
15 miles
Clouds
  • Scattered at 16,000' AGL
  • Overcast at 18,000' AGL
Temperature Dewpoint
8°C / 46°F -2°C / 28°F
Humidity Altimeter Pressure
50% 30.43" Hg 1030.7 hPa